Nearby METAR Reports

 

CYQQ - Comox(MIL), British Columbia, Canada
Distance from station: NNW 52km
Updated: 2024-06-20 01:00
Clear
Clear
 Wind from NW
Wind: NW 9 km/h
Temperature: 15°C
Dew Point: 8°C
Humidity: 63%
Barometer: 1015.9 hPa
Clouds: Clear
Visibility: 32 km
2024/06/20 08:00 CYQQ 200800Z 32005KT 20SM SKC 15/08 A3000 RMK DENSITY ALT 100FT SLP159
CWAC - Nitinat Lake (M, British Columbia, Canada
Distance from station: S 65km
Updated: 2024-06-20 01:10
unable to load CWAC data RC=404 Not Found
unable to load CWAC data RC=404 Not Found
 
CYCD - Nanaimo Airport, British Columbia, Canada
Distance from station: ESE 67km
Updated: 2024-06-19 21:00
NOT Current
Few Clouds
Few Clouds
 Wind from W
Wind: W 4 km/h
Temperature: 20°C
Dew Point: 9°C
Humidity: 49%
Barometer: 1014.9 hPa
Clouds: Few Clouds
Visibility: 48 km
Cloud details: Few Clouds 7010 m
2024/06/20 04:00 CYCD 200400Z 26002KT 30SM FEW230 20/09 A2997 RMK CI1 LAST STFD OBS/NEXT 201300Z SLP152 DENSITY ALT 600FT
 
CYPW - Powell River Arpt, British Columbia, Canada
Distance from station: NNE 68km
Updated: 2024-06-19 19:00
NOT Current
Few Clouds
Few Clouds
 Wind from W
Wind: W 9 km/h
Temperature: 22°C
Dew Point: 7°C
Humidity: 38%
Barometer: 1015.6 hPa
Clouds: Few Clouds
Visibility: 48 km
Cloud details: Few Clouds 1646 m
2024/06/20 02:00 CYPW 200200Z 26005KT 30SM FEW054 22/07 A2999 RMK CU1 CU TR LAST STFD OBS/NXT 201300Z SLP158 DENSITY ALT 1300FT
CYAZ - Tofino Arpt, British Columbia, Canada
Distance from station: WSW 76km
Updated: 2024-06-19 18:00
NOT Current
Clear
Clear
 Wind from WNW
Wind: WNW 22 km/h
Temperature: 18°C
Dew Point: 11°C
Humidity: 64%
Barometer: 1016.3 hPa
Clouds: Clear
Visibility: 24 km
2024/06/20 01:00 CYAZ 200100Z 30012KT 15SM SKC 18/11 A3001 RMK LAST STFD OBS/NXT 201300Z SLP165 DENSITY ALT 400FT
CWEB - Estevan Point, British Columbia, Canada
Distance from station: NW 129km
Updated: 2024-06-20 00:00

 Wind from NW
Wind: NW 19 km/h
Temperature: 12°C
Dew Point: 12°C
Humidity: 100%
2024/06/20 07:00 CWEB 200700Z AUTO 32010KT 12/12 RMK AO1 PK WND 32017/0613 SLP164 T01220115 58006
 
CYBL - Campbell River Arpt, British Columbia, Canada
Distance from station: NNW 86km
Updated: 2024-06-19 21:00
NOT Current
Clear
Clear
 Wind from WNW
Wind: WNW 4 km/h
Temperature: 16°C
Dew Point: 9°C
Humidity: 63%
Barometer: 1015.6 hPa
Clouds: Clear
Visibility: 48 km
2024/06/20 04:00 CYBL 200400Z 30002KT 30SM SKC 16/09 A2999 RMK LAST STFD OBS/NEXT 201300Z SLP157
CYVR - Vancouver Intl, British Columbia, Canada
Distance from station: E 115km
Updated: 2024-06-20 01:00
Clear
Clear
 Wind from calm
Wind: Calm
Temperature: 14°C
Dew Point: 14°C
Humidity: 100%
Barometer: 1015.2 hPa
Clouds: Clear
Visibility: 32 km
2024/06/20 08:00 CYVR 200800Z 00000KT 20SM SKC 14/14 A2998 RMK SLP154
CWKH - Malahat (AUTO8), British Columbia, Canada
Distance from station: SE 116km
Updated: 2024-06-20 01:00

 
Temperature: 15°C
Dew Point: 4°C
Humidity: 48%
2024/06/20 08:00 CWKH 200800Z AUTO 15/04 RMK AO1 2PAST HR 0000 SLP151 P0001 T01530044 50002
 
CWHC - Vancouver (AUTO, British Columbia, Canada
Distance from station: E 118km
Updated: 2007-07-23 06:00
NOT Current

 
Temperature: 15°C
Dew Point: 15°C
Humidity: 100%
2007/07/23 13:00 CWHC 231300Z AUTO 15/15 RMK AO1 0PAST HR M P0008 T01500145 50020
CYYJ - Victoria Intl, British Columbia, Canada
Distance from station: SE 118km
Updated: 2024-06-20 01:00
Clear
Clear
 Wind from W
Wind: W 15 km/h
Temperature: 13°C
Dew Point: 13°C
Humidity: 100%
Barometer: 1015.2 hPa
Clouds: Clear
Visibility: 32 km
2024/06/20 08:00 CYYJ 200800Z 27008KT 20SM SKC 13/13 A2998 RMK SLP155
CWRU - Solander Isl, British Columbia, Canada
Distance from station: NW 247km
Updated: 2024-06-20 00:00

 Wind from N
Wind: N 41 km/h
Temperature: 11°C
Dew Point: 10°C
Humidity: 94%
2024/06/20 07:00 CWRU 200700Z AUTO 01022KT 11/10 RMK AO1 PK WND 00026/0700 SLP177 T01100095 58006